createdAt,value
2022-08-25T00:00:23.274Z,74.80
2022-08-25T00:03:06.548Z,74.63
2022-08-25T00:05:35.022Z,74.77
2022-08-25T00:08:06.676Z,74.69
2022-08-25T00:10:39.024Z,74.77
2022-08-25T00:13:07.852Z,74.90
2022-08-25T00:15:36.281Z,74.73
2022-08-25T00:18:05.771Z,74.54
2022-08-25T00:20:48.813Z,74.64
2022-08-25T00:23:18.711Z,74.51
2022-08-25T00:25:47.891Z,74.31
2022-08-25T00:28:17.058Z,74.37
2022-08-25T00:30:45.589Z,74.50
2022-08-25T00:33:14.914Z,74.58
2022-08-25T00:35:43.642Z,74.87
2022-08-25T00:38:12.952Z,74.84
2022-08-25T00:40:42.497Z,75.14
2022-08-25T00:43:12.291Z,75.28
2022-08-25T00:45:40.780Z,74.94
2022-08-25T00:48:08.848Z,74.98
2022-08-25T00:50:37.260Z,75.17
2022-08-25T00:53:06.307Z,75.03
2022-08-25T00:55:39.391Z,75.20
2022-08-25T00:58:14.847Z,74.98
2022-08-25T01:00:50.107Z,75.08
2022-08-25T01:03:19.435Z,75.04
2022-08-25T01:05:49.182Z,75.25
2022-08-25T01:08:22.281Z,75.39
2022-08-25T01:10:51.115Z,75.53
2022-08-25T01:13:26.509Z,75.79
2022-08-25T01:15:57.082Z,75.72
2022-08-25T01:18:27.401Z,75.86
2022-08-25T01:20:58.552Z,75.62
2022-08-25T01:23:27.474Z,75.68
2022-08-25T01:26:13.415Z,75.89
2022-08-25T01:29:05.197Z,75.84
2022-08-25T01:31:34.720Z,75.81
2022-08-25T01:34:04.946Z,75.97
2022-08-25T01:36:34.610Z,76.16
2022-08-25T01:39:04.778Z,76.13
2022-08-25T01:41:41.822Z,75.84
2022-08-25T01:44:12.404Z,75.98
2022-08-25T01:46:44.796Z,75.94
2022-08-25T01:49:13.157Z,75.95
2022-08-25T01:51:52.696Z,76.20
2022-08-25T01:54:20.741Z,76.16
2022-08-25T01:56:48.715Z,76.25
2022-08-25T01:59:24.150Z,76.37
2022-08-25T02:01:59.903Z,76.69
2022-08-25T02:04:32.429Z,76.45
2022-08-25T02:07:03.401Z,76.36
2022-08-25T02:09:31.759Z,76.52
2022-08-25T02:12:00.329Z,76.55
2022-08-25T02:14:28.719Z,76.79
2022-08-25T02:16:57.368Z,76.78
2022-08-25T02:19:26.530Z,76.48
2022-08-25T02:21:54.548Z,76.48
2022-08-25T02:24:22.711Z,76.72
2022-08-25T02:26:51.248Z,76.57
2022-08-25T02:29:19.216Z,76.60
2022-08-25T02:31:47.262Z,76.60
2022-08-25T02:34:15.717Z,76.39
2022-08-25T02:36:44.234Z,76.34
2022-08-25T02:39:12.910Z,76.36
2022-08-25T02:41:41.434Z,76.36
2022-08-25T02:44:10.456Z,76.44
2022-08-25T02:46:38.982Z,76.26
2022-08-25T02:49:08.147Z,76.37
2022-08-25T02:51:36.714Z,76.46
2022-08-25T02:54:06.154Z,76.55
2022-08-25T02:56:34.368Z,76.56
2022-08-25T02:59:04.125Z,76.37
2022-08-25T03:01:32.960Z,76.49
2022-08-25T03:04:02.182Z,76.39
2022-08-25T03:06:31.014Z,76.41
2022-08-25T03:08:59.155Z,76.52
2022-08-25T03:11:28.046Z,76.42
2022-08-25T03:13:56.672Z,76.59
2022-08-25T03:16:27.814Z,76.69
2022-08-25T03:18:57.663Z,76.85
2022-08-25T03:21:26.715Z,76.89
2022-08-25T03:23:55.018Z,77.04
2022-08-25T03:26:42.239Z,77.05
2022-08-25T03:29:11.039Z,77.16
2022-08-25T03:31:39.162Z,76.92
2022-08-25T03:34:07.770Z,76.90
2022-08-25T03:36:35.813Z,76.96
2022-08-25T03:39:05.033Z,76.82
2022-08-25T03:41:33.203Z,76.88
2022-08-25T03:44:03.457Z,77.19
2022-08-25T03:46:38.617Z,76.99
2022-08-25T03:49:09.678Z,77.17
2022-08-25T03:51:42.321Z,77.30
2022-08-25T03:54:11.580Z,77.31
2022-08-25T03:56:40.748Z,77.42
2022-08-25T03:59:10.138Z,77.46
2022-08-25T04:01:43.394Z,77.34
2022-08-25T04:04:13.290Z,77.28
2022-08-25T04:06:43.818Z,77.27
2022-08-25T04:09:12.810Z,77.44
2022-08-25T04:11:42.743Z,77.37
2022-08-25T04:14:13.799Z,77.29
2022-08-25T04:16:45.439Z,77.17
2022-08-25T04:19:13.981Z,77.24
2022-08-25T04:21:42.768Z,77.16
2022-08-25T04:24:12.399Z,77.14
2022-08-25T04:26:47.196Z,77.43
2022-08-25T04:29:18.732Z,77.28
2022-08-25T04:31:50.600Z,77.21
2022-08-25T04:34:29.447Z,77.28
2022-08-25T04:37:02.637Z,77.15
2022-08-25T04:39:31.225Z,77.07
2022-08-25T04:42:01.014Z,77.30
2022-08-25T04:44:30.953Z,77.00
2022-08-25T04:47:00.551Z,77.25
2022-08-25T04:49:29.012Z,77.18
2022-08-25T04:51:57.762Z,77.12
2022-08-25T04:54:28.331Z,77.25
2022-08-25T04:56:58.293Z,77.02
2022-08-25T04:59:30.021Z,77.27
2022-08-25T05:02:02.877Z,77.10
2022-08-25T05:04:32.886Z,76.74
2022-08-25T05:07:02.433Z,76.64
2022-08-25T05:09:32.185Z,76.49
2022-08-25T05:12:02.832Z,76.17
2022-08-25T05:14:32.831Z,76.03
2022-08-25T05:17:01.177Z,75.73
2022-08-25T05:19:30.104Z,75.82
2022-08-25T05:21:58.330Z,75.66
2022-08-25T05:24:28.134Z,75.72
2022-08-25T05:26:57.922Z,75.40
2022-08-25T05:29:26.070Z,75.11
2022-08-25T05:31:54.486Z,75.03
2022-08-25T05:34:22.955Z,75.01
2022-08-25T05:36:51.742Z,74.86
2022-08-25T05:39:20.128Z,74.74
2022-08-25T05:41:48.159Z,74.56
2022-08-25T05:44:20.937Z,74.61
2022-08-25T05:46:50.329Z,74.83
2022-08-25T05:49:18.841Z,74.29
2022-08-25T05:51:47.007Z,74.19
2022-08-25T05:54:15.395Z,73.54
2022-08-25T05:56:44.280Z,73.63
2022-08-25T05:59:12.266Z,73.64
2022-08-25T06:01:59.129Z,73.81
2022-08-25T06:04:27.684Z,73.71
2022-08-25T06:06:55.805Z,73.63
2022-08-25T06:09:24.508Z,73.21
2022-08-25T06:11:55.118Z,73.36
2022-08-25T06:14:25.149Z,73.82
2022-08-25T06:16:53.752Z,74.01
2022-08-25T06:19:23.675Z,73.53
2022-08-25T06:21:57.096Z,73.30
2022-08-25T06:24:29.047Z,72.98
2022-08-25T06:26:57.733Z,72.74
2022-08-25T06:29:27.449Z,72.48
2022-08-25T06:31:55.838Z,72.16
2022-08-25T06:34:24.426Z,72.01
2022-08-25T06:36:53.039Z,71.93
2022-08-25T06:39:21.668Z,71.67
2022-08-25T06:41:54.866Z,71.88
2022-08-25T06:44:29.658Z,71.39
2022-08-25T06:46:57.872Z,71.29
2022-08-25T06:49:31.888Z,71.00
2022-08-25T06:52:03.178Z,70.35
2022-08-25T06:54:31.349Z,70.02
2022-08-25T06:56:59.304Z,69.80
2022-08-25T06:59:32.288Z,69.34
2022-08-25T07:02:04.241Z,69.27
2022-08-25T07:04:33.711Z,69.17
2022-08-25T07:07:02.597Z,68.70
2022-08-25T07:09:30.750Z,68.27
2022-08-25T07:11:58.951Z,67.97
2022-08-25T07:14:27.054Z,67.53
2022-08-25T07:16:55.124Z,66.77
2022-08-25T07:19:23.161Z,66.06
2022-08-25T07:21:53.269Z,66.29
2022-08-25T07:24:22.659Z,65.91
2022-08-25T07:26:52.203Z,66.12
2022-08-25T07:29:32.555Z,66.19
2022-08-25T07:32:03.845Z,65.04
2022-08-25T07:34:52.033Z,65.01
2022-08-25T07:37:48.123Z,64.55
2022-08-25T07:40:15.065Z,65.03
2022-08-25T07:42:44.431Z,64.45
2022-08-25T07:45:17.302Z,64.34
2022-08-25T07:47:51.645Z,63.50
2022-08-25T07:50:20.593Z,63.75
2022-08-25T07:52:53.908Z,64.05
2022-08-25T07:55:26.050Z,63.57
2022-08-25T07:57:57.538Z,63.77
2022-08-25T08:00:32.304Z,63.20
2022-08-25T08:03:01.686Z,63.08
2022-08-25T08:05:32.531Z,62.62
2022-08-25T08:08:01.163Z,61.19
2022-08-25T08:13:18.698Z,60.05
2022-08-25T08:15:48.133Z,60.76
2022-08-25T08:18:16.768Z,61.29
2022-08-25T08:20:48.961Z,60.13
2022-08-25T08:23:18.224Z,59.83
2022-08-25T08:25:46.348Z,57.60
2022-08-25T08:28:14.633Z,56.77
2022-08-25T08:30:53.785Z,57.92
2022-08-25T08:33:23.444Z,56.27
2022-08-25T08:36:05.066Z,55.89
2022-08-25T08:38:38.170Z,55.92
2022-08-25T08:42:09.424Z,55.16
2022-08-25T08:44:42.882Z,53.59
2022-08-25T08:47:26.712Z,52.37
2022-08-25T08:49:57.696Z,52.11
2022-08-25T08:52:36.456Z,51.61
2022-08-25T08:55:15.960Z,51.15
2022-08-25T09:00:18.291Z,48.48
2022-08-25T09:02:58.178Z,49.41
2022-08-25T09:05:29.768Z,48.93
2022-08-25T09:08:03.479Z,48.35
2022-08-25T09:10:59.284Z,48.24
2022-08-25T09:13:43.764Z,46.65
2022-08-25T09:16:50.749Z,46.35
2022-08-25T09:19:34.020Z,47.12
2022-08-25T09:22:34.884Z,47.01
2022-08-25T09:25:29.479Z,46.25
2022-08-25T09:28:09.087Z,45.65
2022-08-25T09:30:55.367Z,45.55
2022-08-25T09:33:25.871Z,44.84
2022-08-25T09:35:57.343Z,44.04
2022-08-25T09:38:27.950Z,43.93
2022-08-25T09:40:58.371Z,44.58
2022-08-25T09:43:28.842Z,42.48
2022-08-25T09:46:18.117Z,43.22
2022-08-25T09:48:56.829Z,41.62
2022-08-25T09:51:28.514Z,40.80
2022-08-25T09:54:15.611Z,39.67
2022-08-25T09:56:52.365Z,39.47
2022-08-25T09:59:35.918Z,40.21
2022-08-25T10:02:24.042Z,40.31
2022-08-25T10:04:53.247Z,39.48
2022-08-25T10:07:33.652Z,39.70
2022-08-25T10:10:07.878Z,39.55
2022-08-25T10:12:44.779Z,39.56
2022-08-25T10:15:29.681Z,37.27
2022-08-25T10:18:26.163Z,38.11
2022-08-25T10:21:12.895Z,36.85
2022-08-25T10:23:52.915Z,34.98
2022-08-25T10:26:48.487Z,34.94
2022-08-25T10:29:35.807Z,34.39
2022-08-25T10:32:18.865Z,33.52
2022-08-25T10:34:54.791Z,34.34
2022-08-25T10:37:52.640Z,34.13
2022-08-25T10:40:52.751Z,33.87
2022-08-25T10:43:29.547Z,33.26
2022-08-25T10:46:27.710Z,32.25
2022-08-25T10:49:03.904Z,31.40
2022-08-25T10:51:41.199Z,30.29
2022-08-25T10:54:46.177Z,30.36
2022-08-25T10:57:39.974Z,29.64
2022-08-25T11:00:14.150Z,29.30
2022-08-25T11:02:58.154Z,29.80
2022-08-25T11:05:51.925Z,28.90
2022-08-25T11:08:38.303Z,28.86
2022-08-25T11:11:21.503Z,28.56
2022-08-25T11:14:00.719Z,28.09
2022-08-25T11:16:38.779Z,28.28
2022-08-25T11:19:32.762Z,28.01
2022-08-25T11:22:22.486Z,27.61
2022-08-25T11:25:16.402Z,27.45
2022-08-25T11:27:58.707Z,27.83
2022-08-25T11:30:29.110Z,27.07
2022-08-25T11:32:57.936Z,26.94
2022-08-25T11:35:41.423Z,26.75
2022-08-25T11:38:38.051Z,26.64
2022-08-25T11:41:12.223Z,26.88
2022-08-25T11:43:40.631Z,26.67
2022-08-25T11:46:28.758Z,26.28
2022-08-25T11:48:56.795Z,26.21
2022-08-25T11:51:47.744Z,26.44
2022-08-25T11:54:39.570Z,26.12
2022-08-25T11:57:28.284Z,26.64
2022-08-25T12:00:06.119Z,26.55
2022-08-25T12:02:47.613Z,26.02
2022-08-25T12:05:15.560Z,26.52
2022-08-25T12:08:11.281Z,27.10
2022-08-25T12:10:59.070Z,26.99
2022-08-25T12:13:27.287Z,26.58
2022-08-25T12:15:58.213Z,26.89
2022-08-25T12:18:30.035Z,26.47
2022-08-25T12:20:57.961Z,26.45
2022-08-25T12:23:46.419Z,26.09
2022-08-25T12:26:19.550Z,25.69
2022-08-25T12:29:09.361Z,25.68
2022-08-25T12:32:13.428Z,25.89
2022-08-25T12:35:41.234Z,25.81
2022-08-25T12:38:52.192Z,25.69
2022-08-25T12:41:24.409Z,26.49
2022-08-25T12:44:28.150Z,26.12
2022-08-25T12:47:12.592Z,26.96
2022-08-25T12:49:40.881Z,27.04
2022-08-25T12:52:20.940Z,26.89
2022-08-25T12:55:00.575Z,27.67
2022-08-25T12:57:57.840Z,27.42
2022-08-25T13:00:30.287Z,28.06
2022-08-25T13:03:29.440Z,27.64
2022-08-25T13:06:42.791Z,28.37
2022-08-25T13:09:42.579Z,28.13
2022-08-25T13:12:25.095Z,27.91
2022-08-25T13:14:55.633Z,28.18
2022-08-25T13:17:30.267Z,28.46
2022-08-25T13:20:31.032Z,28.67
2022-08-25T13:23:01.117Z,27.95
2022-08-25T13:25:33.622Z,28.83
2022-08-25T13:28:06.532Z,28.44
2022-08-25T13:30:40.018Z,28.55
2022-08-25T13:33:20.298Z,28.32
2022-08-25T13:36:11.326Z,28.50
2022-08-25T13:38:41.102Z,29.13
2022-08-25T13:41:20.016Z,28.87
2022-08-25T13:43:48.130Z,28.90
2022-08-25T13:46:23.284Z,29.43
2022-08-25T13:49:03.442Z,29.77
2022-08-25T13:51:31.896Z,30.46
2022-08-25T13:54:07.020Z,30.34
2022-08-25T13:56:40.936Z,29.55
2022-08-25T13:59:24.524Z,30.01
2022-08-25T14:01:55.096Z,29.27
2022-08-25T14:04:26.123Z,29.26
2022-08-25T14:07:20.844Z,28.85
2022-08-25T14:09:52.250Z,29.78
2022-08-25T14:12:31.640Z,29.80
2022-08-25T14:15:05.804Z,29.69
2022-08-25T14:17:39.298Z,30.26
2022-08-25T14:20:29.347Z,29.77
2022-08-25T14:23:09.736Z,29.74
2022-08-25T14:25:40.723Z,30.21
2022-08-25T14:28:15.309Z,30.64
2022-08-25T14:30:47.318Z,30.31
2022-08-25T14:33:18.149Z,31.40
2022-08-25T14:35:50.547Z,31.07
2022-08-25T14:38:20.484Z,30.91
2022-08-25T14:40:48.479Z,30.25
2022-08-25T14:43:18.401Z,30.28
2022-08-25T14:45:53.139Z,29.46
2022-08-25T14:48:31.002Z,29.27
2022-08-25T14:51:00.684Z,30.14
2022-08-25T14:53:28.967Z,30.89
2022-08-25T14:55:59.342Z,30.45
2022-08-25T14:58:32.464Z,30.47
2022-08-25T15:01:05.627Z,29.69
2022-08-25T15:03:42.730Z,29.47
2022-08-25T15:06:18.215Z,28.83
2022-08-25T15:09:04.789Z,28.92
2022-08-25T15:11:33.076Z,28.99
2022-08-25T15:14:03.425Z,29.31
2022-08-25T15:16:35.128Z,29.52
2022-08-25T15:19:09.796Z,29.35
2022-08-25T15:21:38.377Z,29.58
2022-08-25T15:24:09.517Z,30.15
2022-08-25T15:29:26.304Z,32.54
2022-08-25T15:31:56.805Z,32.09
2022-08-25T15:34:24.823Z,31.02
2022-08-25T15:36:52.952Z,31.87
2022-08-25T15:39:21.420Z,32.73
2022-08-25T15:41:52.400Z,33.15
2022-08-25T15:44:20.638Z,34.67
2022-08-25T15:46:49.757Z,35.36
2022-08-25T15:49:20.378Z,34.10
2022-08-25T15:51:55.524Z,34.66
2022-08-25T15:54:26.664Z,34.52
2022-08-25T15:56:57.276Z,34.33
2022-08-25T15:59:26.890Z,33.87
2022-08-25T16:01:55.903Z,34.03
2022-08-25T16:04:27.146Z,34.40
2022-08-25T16:06:55.770Z,34.44
2022-08-25T16:09:23.992Z,34.73
2022-08-25T16:11:56.598Z,34.85
2022-08-25T16:14:27.675Z,35.30
2022-08-25T16:16:58.540Z,36.20
2022-08-25T16:19:29.644Z,36.40
2022-08-25T16:21:59.839Z,36.35
2022-08-25T16:24:28.310Z,36.46
2022-08-25T16:27:11.334Z,36.65
2022-08-25T16:29:42.912Z,37.33
2022-08-25T16:32:13.648Z,37.21
2022-08-25T16:34:42.940Z,37.35
2022-08-25T16:37:13.777Z,37.85
2022-08-25T16:39:45.760Z,38.29
2022-08-25T16:42:14.598Z,38.17
2022-08-25T16:44:42.974Z,38.55
2022-08-25T16:47:14.013Z,38.84
2022-08-25T16:49:42.661Z,39.50
2022-08-25T16:52:31.119Z,39.73
2022-08-25T16:55:16.277Z,40.52
2022-08-25T16:57:51.286Z,40.89
2022-08-25T17:00:23.561Z,41.09
2022-08-25T17:03:04.928Z,40.81
2022-08-25T17:05:39.535Z,41.24
2022-08-25T17:08:26.636Z,40.87
2022-08-25T17:10:55.109Z,41.27
2022-08-25T17:13:23.669Z,41.14
2022-08-25T17:15:52.440Z,41.16
2022-08-25T17:18:21.451Z,41.45
2022-08-25T17:21:04.011Z,41.51
2022-08-25T17:23:33.169Z,41.93
2022-08-25T17:26:03.446Z,42.81
2022-08-25T17:28:34.493Z,43.47
2022-08-25T17:31:03.445Z,43.84
2022-08-25T17:33:31.475Z,44.24
2022-08-25T17:36:00.601Z,44.88
2022-08-25T17:38:30.311Z,45.55
2022-08-25T17:41:06.933Z,46.02
2022-08-25T17:43:38.151Z,46.05
2022-08-25T17:46:07.534Z,46.28
2022-08-25T17:48:38.102Z,46.07
2022-08-25T17:51:13.125Z,46.36
2022-08-25T17:53:44.563Z,46.56
2022-08-25T17:56:17.002Z,46.77
2022-08-25T17:58:47.538Z,47.05
2022-08-25T18:01:28.300Z,46.87
2022-08-25T18:04:00.169Z,46.88
2022-08-25T18:06:31.246Z,46.76
2022-08-25T18:09:01.634Z,46.52
2022-08-25T18:11:30.573Z,46.95
2022-08-25T18:13:59.184Z,46.44
2022-08-25T18:16:27.653Z,46.53
2022-08-25T18:18:56.011Z,46.64
2022-08-25T18:21:25.390Z,46.56
2022-08-25T18:23:58.897Z,46.79
2022-08-25T18:26:28.031Z,46.68
2022-08-25T18:28:56.039Z,46.43
2022-08-25T18:31:25.455Z,46.14
2022-08-25T18:33:53.645Z,46.39
2022-08-25T18:36:21.583Z,46.41
2022-08-25T18:39:08.635Z,46.22
2022-08-25T18:41:40.548Z,46.61
2022-08-25T18:44:10.544Z,46.43
2022-08-25T18:46:40.339Z,46.40
2022-08-25T18:49:09.134Z,46.70
2022-08-25T18:51:37.826Z,46.90
2022-08-25T18:54:06.159Z,47.94
2022-08-25T18:56:35.180Z,48.81
2022-08-25T18:59:04.255Z,48.78
2022-08-25T19:01:32.647Z,49.12
2022-08-25T19:04:01.069Z,49.36
2022-08-25T19:06:31.203Z,49.72
2022-08-25T19:09:00.499Z,50.40
2022-08-25T19:11:34.148Z,50.36
2022-08-25T19:17:54.732Z,50.65
2022-08-25T19:22:31.721Z,50.35
2022-08-25T19:25:48.546Z,50.42
2022-08-25T19:33:11.612Z,50.24
